Terminal Aerodrome Forecast
Issued by NWS Twin Cities, MN

Home | Current Version | Previous Version | Graphics & Text | Print | Product List | Glossary On
Versions: 1 2 3 4 5 6 7 8 9 10 11 12 13 14 15 16 17 18 19 20 21 22 23 24 25
000
FTUS43 KMPX 280251 AAA
TAFMSP
TAF AMD
KMSP 280251Z 2803/2906 13010KT P6SM SCT060
     FM281000 14013G20KT P6SM VCSH BKN045
      TEMPO 2812/2815 4SM -TSRA BR BKN030CB
     FM281600 15015G22KT P6SM -SHRA SCT015 OVC035
     FM281800 18018G26KT P6SM VCSH OVC035
     FM290200 23014KT P6SM BKN040=

USA.gov is the U.S. government's official web portal to all federal, state and local government web resources and services.